createdAt,value
2023-02-07T00:00:17.611Z,17.88
2023-02-07T00:02:44.912Z,18.52
2023-02-07T00:05:11.745Z,19.77
2023-02-07T00:07:40.119Z,22.38
2023-02-07T00:10:08.365Z,18.88
2023-02-07T00:12:35.313Z,20.20
2023-02-07T00:15:02.007Z,20.92
2023-02-07T00:17:29.147Z,21.80
2023-02-07T00:19:55.789Z,24.48
2023-02-07T00:22:22.727Z,23.70
2023-02-07T00:24:50.923Z,21.27
2023-02-07T00:27:17.593Z,21.88
2023-02-07T00:29:44.213Z,21.38
2023-02-07T00:32:10.982Z,20.83
2023-02-07T00:34:37.597Z,22.35
2023-02-07T00:37:04.586Z,21.35
2023-02-07T00:39:31.631Z,22.02
2023-02-07T00:41:59.922Z,21.38
2023-02-07T00:44:26.587Z,21.08
2023-02-07T00:46:53.284Z,22.00
2023-02-07T00:49:19.997Z,21.73
2023-02-07T00:51:46.620Z,22.98
2023-02-07T00:54:13.265Z,23.23
2023-02-07T00:56:39.986Z,20.67
2023-02-07T00:59:08.168Z,20.60
2023-02-07T01:01:35.111Z,21.95
2023-02-07T01:04:01.951Z,23.38
2023-02-07T01:06:29.208Z,22.73
2023-02-07T01:08:57.414Z,20.92
2023-02-07T01:11:24.134Z,22.77
2023-02-07T01:13:50.761Z,22.63
2023-02-07T01:16:20.544Z,21.90
2023-02-07T01:18:47.530Z,22.05
2023-02-07T01:21:15.626Z,21.20
2023-02-07T01:23:42.309Z,20.90
2023-02-07T01:26:09.077Z,23.25
2023-02-07T01:28:35.791Z,22.05
2023-02-07T01:31:07.507Z,22.38
2023-02-07T01:33:36.606Z,23.52
2023-02-07T01:36:06.582Z,22.45
2023-02-07T01:38:33.247Z,22.33
2023-02-07T01:40:59.849Z,22.70
2023-02-07T01:43:26.922Z,22.10
2023-02-07T01:45:53.614Z,22.58
2023-02-07T01:48:23.680Z,23.70
2023-02-07T01:50:53.889Z,22.25
2023-02-07T01:53:24.012Z,23.25
2023-02-07T01:55:53.426Z,22.00
2023-02-07T01:58:21.236Z,20.23
2023-02-07T02:00:48.865Z,20.88
2023-02-07T02:03:15.475Z,19.50
2023-02-07T02:05:44.191Z,20.27
2023-02-07T02:08:12.292Z,20.52
2023-02-07T02:10:57.083Z,19.35
2023-02-07T02:13:30.430Z,19.02
2023-02-07T02:16:06.327Z,18.67
2023-02-07T02:18:47.919Z,17.70
2023-02-07T02:21:52.568Z,17.77
2023-02-07T02:25:05.978Z,17.67
2023-02-07T02:27:52.161Z,17.38
2023-02-07T02:30:35.524Z,17.88
2023-02-07T02:33:23.311Z,18.48
2023-02-07T02:36:00.650Z,19.45
2023-02-07T02:38:34.955Z,21.92
2023-02-07T02:41:05.989Z,22.77
2023-02-07T02:43:41.220Z,22.95
2023-02-07T02:46:14.510Z,23.35
2023-02-07T02:48:44.657Z,25.30
2023-02-07T02:51:11.742Z,23.70
2023-02-07T02:53:38.615Z,24.52
2023-02-07T02:56:26.812Z,24.33
2023-02-07T02:59:19.336Z,25.08
2023-02-07T03:01:54.405Z,24.88
2023-02-07T03:04:46.179Z,22.65
2023-02-07T03:07:24.519Z,22.27
2023-02-07T03:10:00.818Z,22.05
2023-02-07T03:12:32.575Z,20.52
2023-02-07T03:15:04.432Z,19.42
2023-02-07T03:17:37.133Z,18.80
2023-02-07T03:20:11.346Z,15.05
2023-02-07T03:22:39.757Z,16.30
2023-02-07T03:25:08.420Z,17.00
2023-02-07T03:27:37.140Z,18.65
2023-02-07T03:30:08.315Z,17.30
2023-02-07T03:32:39.722Z,20.08
2023-02-07T03:35:11.182Z,26.30
2023-02-07T03:37:42.212Z,22.98
2023-02-07T03:40:10.705Z,21.35
2023-02-07T03:42:40.889Z,20.52
2023-02-07T03:45:12.284Z,22.23
2023-02-07T03:47:39.283Z,22.38
2023-02-07T03:50:07.950Z,19.30
2023-02-07T03:52:34.780Z,21.25
2023-02-07T03:55:01.416Z,21.00
2023-02-07T03:57:27.965Z,21.30
2023-02-07T03:59:54.634Z,21.75
2023-02-07T04:02:21.257Z,21.98
2023-02-07T04:04:47.908Z,21.77
2023-02-07T04:07:15.862Z,20.30
2023-02-07T04:09:42.500Z,22.65
2023-02-07T04:12:09.251Z,22.30
2023-02-07T04:14:36.122Z,23.42
2023-02-07T04:17:02.735Z,22.88
2023-02-07T04:19:29.373Z,23.52
2023-02-07T04:21:55.981Z,23.30
2023-02-07T04:24:23.988Z,23.38
2023-02-07T04:26:50.857Z,24.05
2023-02-07T04:29:17.598Z,22.80
2023-02-07T04:31:44.262Z,23.73
2023-02-07T04:34:10.857Z,24.02
2023-02-07T04:36:37.473Z,23.40
2023-02-07T04:39:04.177Z,23.42
2023-02-07T04:41:32.122Z,23.35
2023-02-07T04:43:58.714Z,20.67
2023-02-07T04:46:25.320Z,22.20
2023-02-07T04:48:51.979Z,22.10
2023-02-07T04:51:18.591Z,21.95
2023-02-07T04:53:45.198Z,21.17
2023-02-07T04:56:11.775Z,20.83
2023-02-07T04:58:39.725Z,20.42
2023-02-07T05:01:06.432Z,21.92
2023-02-07T05:03:33.088Z,21.02
2023-02-07T05:05:59.730Z,21.05
2023-02-07T05:08:26.508Z,22.83
2023-02-07T05:10:54.090Z,20.00
2023-02-07T05:13:21.212Z,20.17
2023-02-07T05:15:49.691Z,21.70
2023-02-07T05:18:16.968Z,20.67
2023-02-07T05:20:43.965Z,21.38
2023-02-07T05:23:10.920Z,19.50
2023-02-07T05:25:37.824Z,18.65
2023-02-07T05:28:05.022Z,18.63
2023-02-07T05:30:31.866Z,20.13
2023-02-07T05:32:59.953Z,18.15
2023-02-07T05:35:26.538Z,19.92
2023-02-07T05:37:53.260Z,18.92
2023-02-07T05:40:20.050Z,18.30
2023-02-07T05:42:46.624Z,19.38
2023-02-07T05:45:13.294Z,21.02
2023-02-07T05:47:40.207Z,19.20
2023-02-07T05:50:08.636Z,19.20
2023-02-07T05:52:35.849Z,19.83
2023-02-07T05:55:02.688Z,20.02
2023-02-07T05:57:29.642Z,20.98
2023-02-07T05:59:56.238Z,20.15
2023-02-07T06:02:23.294Z,19.48
2023-02-07T06:04:49.928Z,19.52
2023-02-07T06:07:18.032Z,20.05
2023-02-07T06:09:44.633Z,19.60
2023-02-07T06:12:11.316Z,18.02
2023-02-07T06:14:37.951Z,20.45
2023-02-07T06:17:04.629Z,19.80
2023-02-07T06:19:31.278Z,19.85
2023-02-07T06:21:58.019Z,20.65
2023-02-07T06:24:26.260Z,19.63
2023-02-07T06:26:52.899Z,20.77
2023-02-07T06:29:19.712Z,19.77
2023-02-07T06:31:46.398Z,19.95
2023-02-07T06:34:13.121Z,21.08
2023-02-07T06:36:39.868Z,19.98
2023-02-07T06:39:06.574Z,20.20
2023-02-07T06:41:34.527Z,19.65
2023-02-07T06:44:01.222Z,21.35
2023-02-07T06:46:27.837Z,20.15
2023-02-07T06:48:54.480Z,21.13
2023-02-07T06:51:21.121Z,19.13
2023-02-07T06:53:47.829Z,20.25
2023-02-07T06:56:14.458Z,20.85
2023-02-07T06:58:42.502Z,20.20
2023-02-07T07:01:09.144Z,20.05
2023-02-07T07:03:35.768Z,19.77
2023-02-07T07:06:02.352Z,20.23
2023-02-07T07:08:29.260Z,20.58
2023-02-07T07:10:56.957Z,20.45
2023-02-07T07:13:23.536Z,20.33
2023-02-07T07:15:51.557Z,21.15
2023-02-07T07:18:18.196Z,20.40
2023-02-07T07:20:44.861Z,21.20
2023-02-07T07:23:11.533Z,19.55
2023-02-07T07:25:38.281Z,18.95
2023-02-07T07:28:05.375Z,21.30
2023-02-07T07:30:32.065Z,20.27
2023-02-07T07:33:00.087Z,20.17
2023-02-07T07:35:26.714Z,18.25
2023-02-07T07:37:53.390Z,20.20
2023-02-07T07:40:20.058Z,19.88
2023-02-07T07:42:46.729Z,19.02
2023-02-07T07:45:13.396Z,18.42
2023-02-07T07:47:40.079Z,19.40
2023-02-07T07:50:08.984Z,18.27
2023-02-07T07:52:36.049Z,19.38
2023-02-07T07:55:02.891Z,18.30
2023-02-07T07:57:29.458Z,20.35
2023-02-07T07:59:56.226Z,19.77
2023-02-07T08:02:22.834Z,18.65
2023-02-07T08:04:50.163Z,18.35
2023-02-07T08:07:18.519Z,20.80
2023-02-07T08:09:45.215Z,18.10
2023-02-07T08:12:11.822Z,19.00
2023-02-07T08:14:38.512Z,17.00
2023-02-07T08:17:05.160Z,18.95
2023-02-07T08:19:32.022Z,19.20
2023-02-07T08:21:58.618Z,19.08
2023-02-07T08:24:26.709Z,18.67
2023-02-07T08:26:53.368Z,20.60
2023-02-07T08:29:20.173Z,18.58
2023-02-07T08:31:46.974Z,20.95
2023-02-07T08:34:13.597Z,21.40
2023-02-07T08:36:40.220Z,20.48
2023-02-07T08:39:06.983Z,19.95
2023-02-07T08:41:34.994Z,19.25
2023-02-07T08:44:01.590Z,19.63
2023-02-07T08:46:28.195Z,19.67
2023-02-07T08:48:54.833Z,19.20
2023-02-07T08:51:21.636Z,18.92
2023-02-07T08:53:48.253Z,20.13
2023-02-07T08:56:15.001Z,20.17
2023-02-07T08:58:43.060Z,19.35
2023-02-07T09:01:09.725Z,20.05
2023-02-07T09:03:36.565Z,17.63
2023-02-07T09:06:03.733Z,18.88
2023-02-07T09:08:30.370Z,19.85
2023-02-07T09:10:57.049Z,19.30
2023-02-07T09:13:23.826Z,18.13
2023-02-07T09:15:55.437Z,18.38
2023-02-07T09:18:22.073Z,18.15
2023-02-07T09:20:48.816Z,17.42
2023-02-07T09:23:15.515Z,17.77
2023-02-07T09:25:42.901Z,18.90
2023-02-07T09:28:09.702Z,19.95
2023-02-07T09:30:36.466Z,19.42
2023-02-07T09:33:04.700Z,18.02
2023-02-07T09:35:31.344Z,17.92
2023-02-07T09:37:58.033Z,18.83
2023-02-07T09:40:25.636Z,17.90
2023-02-07T09:42:58.929Z,18.02
2023-02-07T09:45:31.278Z,17.60
2023-02-07T09:48:03.850Z,18.50
2023-02-07T09:50:37.120Z,13.83
2023-02-07T09:53:08.773Z,17.02
2023-02-07T09:55:42.328Z,15.93
2023-02-07T09:58:14.528Z,16.90
2023-02-07T10:00:45.323Z,15.75
2023-02-07T10:03:18.419Z,17.48
2023-02-07T10:05:51.902Z,16.02
2023-02-07T10:08:19.751Z,17.17
2023-02-07T10:10:50.601Z,16.55
2023-02-07T10:13:31.741Z,17.08
2023-02-07T10:16:15.080Z,17.73
2023-02-07T10:18:47.863Z,15.93
2023-02-07T10:21:22.703Z,15.95
2023-02-07T10:24:03.834Z,17.00
2023-02-07T10:26:36.908Z,16.75
2023-02-07T10:29:17.942Z,16.40
2023-02-07T10:31:48.644Z,16.40
2023-02-07T10:34:19.938Z,15.70
2023-02-07T10:36:51.358Z,16.42
2023-02-07T10:39:24.645Z,15.85
2023-02-07T10:44:20.006Z,14.85
2023-02-07T10:46:50.319Z,15.15
2023-02-07T10:49:24.722Z,16.13
2023-02-07T10:51:56.085Z,15.35
2023-02-07T10:54:22.706Z,15.70
2023-02-07T10:56:51.584Z,15.23
2023-02-07T10:59:35.202Z,15.32
2023-02-07T11:04:36.277Z,15.85
2023-02-07T11:07:07.771Z,15.43
2023-02-07T11:09:34.418Z,15.38
2023-02-07T11:12:01.222Z,16.83
2023-02-07T11:14:27.907Z,14.90
2023-02-07T11:16:56.126Z,15.88
2023-02-07T11:19:25.196Z,15.88
2023-02-07T11:21:56.257Z,16.60
2023-02-07T11:24:28.898Z,15.35
2023-02-07T11:27:00.589Z,15.70
2023-02-07T11:29:28.175Z,15.35
2023-02-07T11:31:57.705Z,14.73
2023-02-07T11:34:31.063Z,14.88
2023-02-07T11:39:40.421Z,14.75
2023-02-07T11:42:12.815Z,14.07
2023-02-07T11:44:42.443Z,15.23
2023-02-07T11:47:15.378Z,13.98
2023-02-07T11:49:45.628Z,14.25
2023-02-07T11:52:13.486Z,13.40
2023-02-07T11:54:48.255Z,13.77
2023-02-07T11:57:16.869Z,14.38
2023-02-07T11:59:49.162Z,14.57
2023-02-07T12:02:19.860Z,13.65
2023-02-07T12:04:46.964Z,14.30
2023-02-07T12:07:18.922Z,12.65
2023-02-07T12:09:51.537Z,13.82
2023-02-07T12:12:22.600Z,14.30
2023-02-07T12:14:54.104Z,13.77
2023-02-07T12:17:27.064Z,14.07
2023-02-07T12:19:56.604Z,13.32
2023-02-07T12:22:28.762Z,14.35
2023-02-07T12:25:03.202Z,13.75
2023-02-07T12:27:35.519Z,14.15
2023-02-07T12:30:11.324Z,14.80
2023-02-07T12:32:45.323Z,13.43
2023-02-07T12:35:19.963Z,14.40
2023-02-07T12:37:52.665Z,12.30
2023-02-07T12:40:27.288Z,13.07
2023-02-07T12:42:57.842Z,12.93
2023-02-07T12:45:39.118Z,11.40
2023-02-07T12:48:14.049Z,13.23
2023-02-07T12:50:54.953Z,12.90
2023-02-07T12:53:39.992Z,12.95
2023-02-07T12:56:23.329Z,13.93
2023-02-07T12:58:59.239Z,12.35
2023-02-07T13:01:35.931Z,12.93
2023-02-07T13:04:37.729Z,13.43
2023-02-07T13:07:17.130Z,12.38
2023-02-07T13:09:51.991Z,13.55
2023-02-07T13:12:26.494Z,12.88
2023-02-07T13:15:05.382Z,13.48
2023-02-07T13:17:41.613Z,12.85
2023-02-07T13:20:22.524Z,12.68
2023-02-07T13:22:53.609Z,13.18
2023-02-07T13:25:23.208Z,12.88
2023-02-07T13:27:54.610Z,13.13
2023-02-07T13:30:22.024Z,12.23
2023-02-07T13:32:50.607Z,12.98
2023-02-07T13:35:20.824Z,13.27
2023-02-07T13:37:52.902Z,13.23
2023-02-07T13:40:30.399Z,12.90
2023-02-07T13:43:04.320Z,12.93
2023-02-07T13:45:40.856Z,11.93
2023-02-07T13:48:18.329Z,11.77
2023-02-07T13:50:54.204Z,11.40
2023-02-07T13:53:34.160Z,11.40
2023-02-07T13:56:02.077Z,11.13
2023-02-07T13:58:54.791Z,11.15
2023-02-07T14:01:23.733Z,11.77
2023-02-07T14:04:01.797Z,12.00
2023-02-07T14:06:30.762Z,12.23
2023-02-07T14:09:01.584Z,12.45
2023-02-07T14:11:39.156Z,12.40
2023-02-07T14:14:15.339Z,12.20
2023-02-07T14:16:48.610Z,12.05
2023-02-07T14:19:16.069Z,12.38
2023-02-07T14:21:42.822Z,11.48
2023-02-07T14:24:19.761Z,12.35
2023-02-07T14:26:59.406Z,11.50
2023-02-07T14:29:54.016Z,12.25
2023-02-07T14:32:39.915Z,12.15
2023-02-07T14:35:38.593Z,12.23
2023-02-07T14:38:30.417Z,11.57
2023-02-07T14:41:10.717Z,11.55
2023-02-07T14:43:56.747Z,11.82
2023-02-07T14:46:30.748Z,11.38
2023-02-07T14:49:02.754Z,11.38
2023-02-07T14:51:39.265Z,10.98
2023-02-07T14:54:13.832Z,10.93
2023-02-07T14:56:46.663Z,12.10
2023-02-07T14:59:18.440Z,12.15
2023-02-07T15:01:45.189Z,13.18
2023-02-07T15:04:12.890Z,12.55
2023-02-07T15:06:43.731Z,11.18
2023-02-07T15:09:26.541Z,11.32
2023-02-07T15:12:03.539Z,13.40
2023-02-07T15:14:35.350Z,12.88
2023-02-07T15:17:02.506Z,13.15
2023-02-07T15:19:34.588Z,12.10
2023-02-07T15:22:03.511Z,12.10
2023-02-07T15:24:39.754Z,12.27
2023-02-07T15:27:20.464Z,13.73
2023-02-07T15:29:55.013Z,13.05
2023-02-07T15:32:22.807Z,12.80
2023-02-07T15:34:49.600Z,14.20
2023-02-07T15:37:21.559Z,13.43
2023-02-07T15:39:51.111Z,14.43
2023-02-07T15:42:19.706Z,12.65
2023-02-07T15:44:48.707Z,11.90
2023-02-07T15:47:32.106Z,13.45
2023-02-07T15:50:00.585Z,12.90
2023-02-07T15:52:32.180Z,13.43
2023-02-07T15:55:01.998Z,12.20
2023-02-07T15:57:33.034Z,14.65
2023-02-07T16:00:03.622Z,12.98
2023-02-07T16:02:33.091Z,12.95
2023-02-07T16:05:08.353Z,13.75
2023-02-07T16:07:38.116Z,13.93
2023-02-07T16:10:16.786Z,13.25
2023-02-07T16:12:46.234Z,14.10
2023-02-07T16:15:25.406Z,13.77
2023-02-07T16:17:52.408Z,12.90
2023-02-07T16:20:19.506Z,16.95
2023-02-07T16:22:48.107Z,14.65
2023-02-07T16:25:18.060Z,15.80
2023-02-07T16:27:46.568Z,14.70
2023-02-07T16:30:16.608Z,14.60
2023-02-07T16:32:43.666Z,15.65
2023-02-07T16:35:17.236Z,16.20
2023-02-07T16:37:44.130Z,16.23
2023-02-07T16:40:13.257Z,17.73
2023-02-07T16:42:42.091Z,17.90
2023-02-07T16:45:16.175Z,17.85
2023-02-07T16:47:43.315Z,17.15
2023-02-07T16:50:14.528Z,16.90
2023-02-07T16:52:41.313Z,17.85
2023-02-07T16:55:08.299Z,17.55
2023-02-07T16:57:37.058Z,21.88
2023-02-07T17:00:04.565Z,33.53
2023-02-07T17:02:31.324Z,20.23
2023-02-07T17:04:58.033Z,20.40
2023-02-07T17:07:24.731Z,21.13
2023-02-07T17:09:51.508Z,20.63
2023-02-07T17:12:18.088Z,22.63
2023-02-07T17:14:46.182Z,22.90
2023-02-07T17:17:12.923Z,22.45
2023-02-07T17:19:39.649Z,22.25
2023-02-07T17:22:06.336Z,23.80
2023-02-07T17:24:33.004Z,21.80
2023-02-07T17:26:59.905Z,22.40
2023-02-07T17:29:26.763Z,21.83
2023-02-07T17:31:54.807Z,20.92
2023-02-07T17:34:21.670Z,20.55
2023-02-07T17:36:49.924Z,20.92
2023-02-07T17:39:18.267Z,19.70
2023-02-07T17:41:45.029Z,18.52
2023-02-07T17:44:11.650Z,18.95
2023-02-07T17:46:38.356Z,17.67
2023-02-07T17:49:12.637Z,18.90
2023-02-07T17:51:39.365Z,19.25
2023-02-07T17:54:06.185Z,18.55
2023-02-07T17:56:33.359Z,18.50
2023-02-07T17:59:02.257Z,16.92
2023-02-07T18:01:29.194Z,15.00
2023-02-07T18:03:55.985Z,16.85
2023-02-07T18:06:26.179Z,17.40
2023-02-07T18:08:55.057Z,16.20
2023-02-07T18:11:22.946Z,14.32
2023-02-07T18:13:49.586Z,14.32
2023-02-07T18:16:17.853Z,15.00
2023-02-07T18:18:44.670Z,15.45
2023-02-07T18:21:13.440Z,14.90
2023-02-07T18:23:42.045Z,14.70
2023-02-07T18:26:09.728Z,16.52
2023-02-07T18:28:36.498Z,16.13
2023-02-07T18:31:08.988Z,15.63
2023-02-07T18:33:35.739Z,14.03
2023-02-07T18:36:02.386Z,14.48
2023-02-07T18:38:29.110Z,13.13
2023-02-07T18:40:57.148Z,15.20
2023-02-07T18:43:23.775Z,14.18
2023-02-07T18:45:50.664Z,13.80
2023-02-07T18:48:17.516Z,13.55
2023-02-07T18:50:45.033Z,13.15
2023-02-07T18:53:12.543Z,14.50
2023-02-07T18:55:39.245Z,15.75
2023-02-07T18:58:07.393Z,13.80
2023-02-07T19:00:34.049Z,13.93
2023-02-07T19:03:00.661Z,13.98
2023-02-07T19:05:27.338Z,13.20
2023-02-07T19:07:54.584Z,13.60
2023-02-07T19:10:21.265Z,13.75
2023-02-07T19:12:47.892Z,14.48
2023-02-07T19:15:15.990Z,12.35
2023-02-07T19:17:42.645Z,13.82
2023-02-07T19:20:10.310Z,13.55
2023-02-07T19:22:37.700Z,14.25
2023-02-07T19:25:05.628Z,12.32
2023-02-07T19:27:32.398Z,11.52
2023-02-07T19:29:59.002Z,13.00
2023-02-07T19:32:27.071Z,11.70
2023-02-07T19:34:53.762Z,13.40
2023-02-07T19:37:20.454Z,13.43
2023-02-07T19:39:47.033Z,13.75
2023-02-07T19:42:13.687Z,13.02
2023-02-07T19:44:40.402Z,13.05
2023-02-07T19:47:07.055Z,14.27
2023-02-07T19:49:35.193Z,13.82
2023-02-07T19:52:01.796Z,13.57
2023-02-07T19:54:28.478Z,14.30
2023-02-07T19:56:55.024Z,14.57
2023-02-07T19:59:21.678Z,13.98
2023-02-07T20:01:48.454Z,16.13
2023-02-07T20:04:15.333Z,15.63
2023-02-07T20:06:43.427Z,14.75
2023-02-07T20:09:10.276Z,14.90
2023-02-07T20:11:36.972Z,16.23
2023-02-07T20:14:03.980Z,14.77
2023-02-07T20:16:33.441Z,14.82
2023-02-07T20:19:00.942Z,14.40
2023-02-07T20:21:29.171Z,14.68
2023-02-07T20:23:57.893Z,14.05
2023-02-07T20:26:26.937Z,14.77
2023-02-07T20:28:53.917Z,15.32
2023-02-07T20:31:23.346Z,13.75
2023-02-07T20:33:50.462Z,14.18
2023-02-07T20:36:18.312Z,13.35
2023-02-07T20:38:46.135Z,12.43
2023-02-07T20:41:15.938Z,11.88
2023-02-07T20:43:43.101Z,12.90
2023-02-07T20:46:11.504Z,13.07
2023-02-07T20:48:39.020Z,13.10
2023-02-07T20:51:06.140Z,12.65
2023-02-07T20:53:32.854Z,13.10
2023-02-07T20:56:08.827Z,12.60
2023-02-07T20:58:36.986Z,12.85
2023-02-07T21:01:12.607Z,13.85
2023-02-07T21:03:40.165Z,18.58
2023-02-07T21:06:07.939Z,15.40
2023-02-07T21:08:35.877Z,16.10
2023-02-07T21:11:03.807Z,16.15
2023-02-07T21:13:30.658Z,14.38
2023-02-07T21:16:03.394Z,16.48
2023-02-07T21:18:30.505Z,16.92
2023-02-07T21:20:57.096Z,17.20
2023-02-07T21:23:23.952Z,16.98
2023-02-07T21:25:50.707Z,18.85
2023-02-07T21:28:17.414Z,21.27
2023-02-07T21:30:44.729Z,21.75
2023-02-07T21:33:12.692Z,21.30
2023-02-07T21:35:39.333Z,16.35
2023-02-07T21:38:05.897Z,19.33
2023-02-07T21:40:32.527Z,18.45
2023-02-07T21:42:59.098Z,21.23
2023-02-07T21:45:25.752Z,16.85
2023-02-07T21:47:52.513Z,18.27
2023-02-07T21:50:20.551Z,18.17
2023-02-07T21:52:47.156Z,19.70
2023-02-07T21:55:13.788Z,18.98
2023-02-07T21:57:40.422Z,17.48
2023-02-07T22:00:08.039Z,19.40
2023-02-07T22:02:35.401Z,20.42
2023-02-07T22:05:02.211Z,20.30
2023-02-07T22:07:30.239Z,22.13
2023-02-07T22:09:56.908Z,21.73
2023-02-07T22:12:23.530Z,23.42
2023-02-07T22:14:50.158Z,22.33
2023-02-07T22:17:16.817Z,22.75
2023-02-07T22:19:43.666Z,23.33
2023-02-07T22:22:10.525Z,21.20
2023-02-07T22:24:38.463Z,22.80
2023-02-07T22:27:05.137Z,23.65
2023-02-07T22:29:31.804Z,24.35
2023-02-07T22:31:58.468Z,23.48
2023-02-07T22:34:25.100Z,22.20
2023-02-07T22:36:51.769Z,23.30
2023-02-07T22:39:19.879Z,21.92
2023-02-07T22:41:48.014Z,20.02
2023-02-07T22:44:14.867Z,20.85
2023-02-07T22:46:41.845Z,21.80
2023-02-07T22:49:08.510Z,19.20
2023-02-07T22:51:36.867Z,18.30
2023-02-07T22:54:05.883Z,18.75
2023-02-07T22:56:33.173Z,17.67
2023-02-07T22:59:02.734Z,19.88
2023-02-07T23:01:32.048Z,16.63
2023-02-07T23:03:58.870Z,19.73
2023-02-07T23:06:26.290Z,22.52
2023-02-07T23:08:53.501Z,24.10
2023-02-07T23:11:22.346Z,27.42
2023-02-07T23:13:49.425Z,24.83
2023-02-07T23:16:19.523Z,26.67
2023-02-07T23:18:46.845Z,30.42
2023-02-07T23:21:15.738Z,31.30
2023-02-07T23:23:42.627Z,28.17
2023-02-07T23:26:11.524Z,27.63
2023-02-07T23:28:38.669Z,29.23
2023-02-07T23:31:05.432Z,27.23
2023-02-07T23:33:34.341Z,27.65
2023-02-07T23:36:02.007Z,29.00
2023-02-07T23:38:28.789Z,29.95
2023-02-07T23:40:55.407Z,28.88
2023-02-07T23:43:22.245Z,27.60
2023-02-07T23:45:48.929Z,30.20
2023-02-07T23:48:15.668Z,28.15
2023-02-07T23:50:43.801Z,27.95
2023-02-07T23:53:10.516Z,30.30
2023-02-07T23:55:40.458Z,29.38
2023-02-07T23:58:07.486Z,31.58
